createdAt,value
2017-08-17T00:00:15.111Z,1013.71
2017-08-17T00:01:15.150Z,1013.70
2017-08-17T00:03:09.640Z,1013.67
2017-08-17T00:04:09.623Z,1013.67
2017-08-17T00:06:04.111Z,1013.69
2017-08-17T00:07:04.119Z,1013.66
2017-08-17T00:08:58.615Z,1013.69
2017-08-17T00:09:58.615Z,1013.72
2017-08-17T00:11:53.103Z,1013.74
2017-08-17T00:12:53.111Z,1013.70
2017-08-17T00:14:47.592Z,1013.76
2017-08-17T00:15:47.615Z,1013.75
2017-08-17T00:17:42.104Z,1013.69
2017-08-17T00:18:42.136Z,1013.66
2017-08-17T00:20:35.559Z,1013.61
2017-08-17T00:21:35.623Z,1013.59
2017-08-17T00:23:30.096Z,1013.55
2017-08-17T00:24:30.211Z,1013.51
2017-08-17T00:26:24.669Z,1013.49
2017-08-17T00:27:24.833Z,1013.52
2017-08-17T00:29:19.112Z,1013.45
2017-08-17T00:30:19.136Z,1013.42
2017-08-17T00:32:13.568Z,1013.37
2017-08-17T00:33:13.624Z,1013.35
2017-08-17T00:35:08.112Z,1013.35
2017-08-17T00:36:08.120Z,1013.31
2017-08-17T00:38:02.584Z,1013.27
2017-08-17T00:39:02.672Z,1013.26
2017-08-17T00:40:57.096Z,1013.23
2017-08-17T00:41:57.118Z,1013.24
2017-08-17T00:43:51.584Z,1013.30
2017-08-17T00:44:51.620Z,1013.28
2017-08-17T00:46:46.088Z,1013.28
2017-08-17T00:47:46.130Z,1013.27
2017-08-17T00:49:40.585Z,1013.29
2017-08-17T00:50:40.608Z,1013.30
2017-08-17T00:52:35.057Z,1013.27
2017-08-17T00:53:35.096Z,1013.30
2017-08-17T00:55:29.637Z,1013.28
2017-08-17T00:56:29.601Z,1013.30
2017-08-17T00:58:24.048Z,1013.29
2017-08-17T00:59:24.089Z,1013.27
2017-08-17T01:01:18.593Z,1013.26
2017-08-17T01:02:18.600Z,1013.27
2017-08-17T01:04:13.041Z,1013.24
2017-08-17T01:05:13.081Z,1013.26
2017-08-17T01:07:07.593Z,1013.26
2017-08-17T01:08:07.747Z,1013.20
2017-08-17T01:10:02.063Z,1013.19
2017-08-17T01:11:02.089Z,1013.17
2017-08-17T01:12:56.578Z,1013.14
2017-08-17T01:13:56.601Z,1013.13
2017-08-17T01:15:51.041Z,1013.14
2017-08-17T01:16:51.098Z,1013.09
2017-08-17T01:18:45.562Z,1013.10
2017-08-17T01:19:45.585Z,1013.09
2017-08-17T01:21:40.042Z,1013.08
2017-08-17T01:22:40.074Z,1013.10
2017-08-17T01:24:34.570Z,1013.09
2017-08-17T01:25:34.578Z,1013.13
2017-08-17T01:27:27.865Z,1013.15
2017-08-17T01:28:27.873Z,1013.08
2017-08-17T01:30:22.329Z,1013.12
2017-08-17T01:31:22.376Z,1013.08
2017-08-17T01:33:16.873Z,1013.06
2017-08-17T01:34:16.873Z,1013.08
2017-08-17T01:36:11.329Z,1012.98
2017-08-17T01:37:11.378Z,1013.02
2017-08-17T01:39:04.873Z,1013.02
2017-08-17T01:40:04.857Z,1013.02
2017-08-17T01:41:59.329Z,1013.01
2017-08-17T01:42:59.370Z,1012.99
2017-08-17T01:44:53.858Z,1012.97
2017-08-17T01:45:53.881Z,1012.97
2017-08-17T01:47:48.305Z,1012.94
2017-08-17T01:48:48.354Z,1012.94
2017-08-17T01:50:42.866Z,1012.92
2017-08-17T01:51:42.859Z,1012.89
2017-08-17T01:53:36.346Z,1012.90
2017-08-17T01:54:36.394Z,1012.91
2017-08-17T01:56:30.851Z,1012.86
2017-08-17T01:57:30.882Z,1012.91
2017-08-17T01:59:25.355Z,1012.83
2017-08-17T02:00:25.362Z,1012.82
2017-08-17T02:02:19.858Z,1012.83
2017-08-17T02:03:19.874Z,1012.83
2017-08-17T02:05:14.330Z,1012.80
2017-08-17T02:06:14.370Z,1012.79
2017-08-17T02:08:08.838Z,1012.80
2017-08-17T02:09:08.867Z,1012.82
2017-08-17T02:11:02.330Z,1012.80
2017-08-17T02:12:02.379Z,1012.81
2017-08-17T02:13:56.866Z,1012.86
2017-08-17T02:14:56.867Z,1012.85
2017-08-17T02:16:51.315Z,1012.90
2017-08-17T02:17:51.347Z,1012.89
2017-08-17T02:19:45.835Z,1012.84
2017-08-17T02:20:45.851Z,1012.85
2017-08-17T02:22:39.355Z,1012.85
2017-08-17T02:23:39.404Z,1012.85
2017-08-17T02:25:33.892Z,1012.82
2017-08-17T02:26:33.892Z,1012.80
2017-08-17T02:28:28.363Z,1012.75
2017-08-17T02:29:28.384Z,1012.81
2017-08-17T02:31:22.861Z,1012.76
2017-08-17T02:32:22.876Z,1012.76
2017-08-17T02:34:17.372Z,1012.75
2017-08-17T02:35:17.372Z,1012.77
2017-08-17T02:37:11.835Z,1012.76
2017-08-17T02:38:11.884Z,1012.75
2017-08-17T02:40:06.348Z,1012.77
2017-08-17T02:41:06.396Z,1012.71
2017-08-17T02:43:00.813Z,1012.75
2017-08-17T02:44:00.852Z,1012.71
2017-08-17T02:45:55.348Z,1012.70
2017-08-17T02:46:55.404Z,1012.73
2017-08-17T02:48:49.812Z,1012.67
2017-08-17T02:49:49.852Z,1012.68
2017-08-17T02:51:44.332Z,1012.71
2017-08-17T02:52:44.349Z,1012.66
2017-08-17T02:54:38.812Z,1012.67
2017-08-17T02:55:38.837Z,1012.67
2017-08-17T02:57:33.316Z,1012.71
2017-08-17T02:58:33.349Z,1012.70
2017-08-17T03:00:27.845Z,1012.71
2017-08-17T03:01:27.829Z,1012.68
2017-08-17T03:03:22.284Z,1012.70
2017-08-17T03:04:22.357Z,1012.72
2017-08-17T03:06:16.813Z,1012.77
2017-08-17T03:07:16.829Z,1012.76
2017-08-17T03:09:11.285Z,1012.73
2017-08-17T03:10:11.317Z,1012.70
2017-08-17T03:12:05.797Z,1012.72
2017-08-17T03:13:05.813Z,1012.71
2017-08-17T03:15:00.277Z,1012.68
2017-08-17T03:16:00.321Z,1012.66
2017-08-17T03:17:54.773Z,1012.66
2017-08-17T03:18:54.798Z,1012.64
2017-08-17T03:20:49.261Z,1012.64
2017-08-17T03:21:49.286Z,1012.62
2017-08-17T03:23:43.766Z,1012.61
2017-08-17T03:24:43.790Z,1012.64
2017-08-17T03:26:38.367Z,1012.62
2017-08-17T03:27:38.294Z,1012.61
2017-08-17T03:29:32.774Z,1012.58
2017-08-17T03:30:32.782Z,1012.57
2017-08-17T03:32:27.239Z,1012.58
2017-08-17T03:33:27.278Z,1012.57
2017-08-17T03:35:21.766Z,1012.54
2017-08-17T03:36:21.766Z,1012.52
2017-08-17T03:38:16.214Z,1012.52
2017-08-17T03:39:16.263Z,1012.47
2017-08-17T03:41:10.745Z,1012.45
2017-08-17T03:42:10.779Z,1012.48
2017-08-17T03:44:05.239Z,1012.51
2017-08-17T03:45:05.263Z,1012.52
2017-08-17T03:46:59.711Z,1012.43
2017-08-17T03:47:59.759Z,1012.45
2017-08-17T03:49:54.227Z,1012.44
2017-08-17T03:50:54.247Z,1012.39
2017-08-17T03:52:48.735Z,1012.40
2017-08-17T03:53:48.768Z,1012.36
2017-08-17T03:55:43.192Z,1012.35
2017-08-17T03:56:43.263Z,1012.31
2017-08-17T03:58:37.719Z,1012.30
2017-08-17T03:59:37.743Z,1012.31
2017-08-17T04:01:32.247Z,1012.32
2017-08-17T04:02:32.288Z,1012.32
2017-08-17T04:04:26.767Z,1012.29
2017-08-17T04:05:26.799Z,1012.32
2017-08-17T04:07:20.808Z,1012.28
2017-08-17T04:08:20.488Z,1012.31
2017-08-17T04:10:14.968Z,1012.26
2017-08-17T04:11:15.000Z,1012.28
2017-08-17T04:13:09.440Z,1012.28
2017-08-17T04:14:09.496Z,1012.29
2017-08-17T04:16:03.968Z,1012.27
2017-08-17T04:17:03.976Z,1012.28
2017-08-17T04:18:56.936Z,1012.26
2017-08-17T04:19:56.992Z,1012.23
2017-08-17T04:21:51.486Z,1012.22
2017-08-17T04:22:51.507Z,1012.13
2017-08-17T04:24:45.926Z,1012.10
2017-08-17T04:25:46.022Z,1012.11
2017-08-17T04:27:41.447Z,1012.10
2017-08-17T04:28:41.464Z,1012.11
2017-08-17T04:30:35.942Z,1012.15
2017-08-17T04:31:35.975Z,1012.20
2017-08-17T04:33:30.422Z,1012.23
2017-08-17T04:34:30.465Z,1012.20
2017-08-17T04:36:24.951Z,1012.12
2017-08-17T04:37:25.055Z,1012.13
2017-08-17T04:39:18.558Z,1012.07
2017-08-17T04:40:18.470Z,1012.08
2017-08-17T04:42:11.999Z,1012.09
2017-08-17T04:43:11.966Z,1012.07
2017-08-17T04:45:06.599Z,1012.06
2017-08-17T04:46:06.511Z,1012.02
2017-08-17T04:48:02.439Z,1011.99
2017-08-17T04:49:02.440Z,1011.99
2017-08-17T04:50:56.921Z,1011.99
2017-08-17T04:51:57.159Z,1012.02
2017-08-17T04:53:51.495Z,1011.99
2017-08-17T04:54:51.583Z,1011.99
2017-08-17T04:56:45.952Z,1011.99
2017-08-17T04:57:46.047Z,1011.99
2017-08-17T04:59:39.415Z,1011.97
2017-08-17T05:00:39.447Z,1011.96
2017-08-17T05:02:33.896Z,1012.01
2017-08-17T05:03:33.992Z,1012.00
2017-08-17T05:05:28.512Z,1011.98
2017-08-17T05:06:28.464Z,1011.95
2017-08-17T05:08:22.879Z,1011.99
2017-08-17T05:09:22.992Z,1011.99
2017-08-17T05:11:16.544Z,1012.02
2017-08-17T05:12:16.560Z,1011.98
2017-08-17T05:14:10.888Z,1011.99
2017-08-17T05:15:10.920Z,1011.99
2017-08-17T05:17:06.576Z,1011.94
2017-08-17T05:18:05.425Z,1011.93
2017-08-17T05:19:59.880Z,1011.91
2017-08-17T05:20:59.993Z,1011.92
2017-08-17T05:22:54.441Z,1011.90
2017-08-17T05:23:55.635Z,1011.91
2017-08-17T05:25:48.919Z,1011.86
2017-08-17T05:26:48.937Z,1011.84
2017-08-17T05:28:43.425Z,1011.84
2017-08-17T05:29:43.425Z,1011.80
2017-08-17T05:31:36.897Z,1011.81
2017-08-17T05:32:37.017Z,1011.80
2017-08-17T05:34:31.401Z,1011.88
2017-08-17T05:35:31.625Z,1011.85
2017-08-17T05:37:24.922Z,1011.86
2017-08-17T05:38:25.289Z,1011.80
2017-08-17T05:40:19.387Z,1011.80
2017-08-17T05:41:19.433Z,1011.76
2017-08-17T05:43:12.898Z,1011.79
2017-08-17T05:44:13.257Z,1011.76
2017-08-17T05:46:07.665Z,1011.74
2017-08-17T05:47:07.458Z,1011.73
2017-08-17T05:49:01.898Z,1011.75
2017-08-17T05:50:01.907Z,1011.75
2017-08-17T05:51:56.362Z,1011.81
2017-08-17T05:52:56.418Z,1011.81
2017-08-17T05:54:50.930Z,1011.85
2017-08-17T05:55:50.922Z,1011.81
2017-08-17T05:57:45.354Z,1011.88
2017-08-17T05:58:45.441Z,1011.91
2017-08-17T06:00:39.898Z,1011.90
2017-08-17T06:01:39.907Z,1011.91
2017-08-17T06:03:34.362Z,1011.89
2017-08-17T06:04:34.402Z,1011.89
2017-08-17T06:06:28.890Z,1011.84
2017-08-17T06:07:28.890Z,1011.86
2017-08-17T06:09:22.354Z,1011.82
2017-08-17T06:10:22.450Z,1011.81
2017-08-17T06:12:16.906Z,1011.77
2017-08-17T06:13:16.907Z,1011.74
2017-08-17T06:15:10.402Z,1011.73
2017-08-17T06:16:10.386Z,1011.70
2017-08-17T06:18:04.879Z,1011.62
2017-08-17T06:19:04.906Z,1011.63
2017-08-17T06:20:59.386Z,1011.58
2017-08-17T06:21:59.388Z,1011.60
2017-08-17T06:23:52.874Z,1011.62
2017-08-17T06:24:52.931Z,1011.58
2017-08-17T06:26:47.371Z,1011.60
2017-08-17T06:27:47.402Z,1011.60
2017-08-17T06:29:41.878Z,1011.64
2017-08-17T06:30:41.936Z,1011.67
2017-08-17T06:32:36.431Z,1011.68
2017-08-17T06:33:36.407Z,1011.67
2017-08-17T06:35:30.874Z,1011.65
2017-08-17T06:36:30.920Z,1011.73
2017-08-17T06:38:25.352Z,1011.67
2017-08-17T06:39:25.387Z,1011.70
2017-08-17T06:41:20.009Z,1011.75
2017-08-17T06:42:19.903Z,1011.81
2017-08-17T06:44:14.375Z,1011.78
2017-08-17T06:45:14.392Z,1011.76
2017-08-17T06:47:07.856Z,1011.79
2017-08-17T06:48:07.872Z,1011.78
2017-08-17T06:50:02.347Z,1011.79
2017-08-17T06:51:02.368Z,1011.77
2017-08-17T06:52:56.840Z,1011.84
2017-08-17T06:53:56.895Z,1011.87
2017-08-17T06:55:51.384Z,1011.80
2017-08-17T06:56:51.392Z,1011.77
2017-08-17T06:58:47.336Z,1011.79
2017-08-17T06:59:47.464Z,1011.79
2017-08-17T07:01:41.889Z,1011.82
2017-08-17T07:02:41.888Z,1011.83
2017-08-17T07:04:36.352Z,1011.84
2017-08-17T07:05:36.417Z,1011.84
2017-08-17T07:07:30.896Z,1011.80
2017-08-17T07:08:30.920Z,1011.84
2017-08-17T07:10:25.513Z,1011.79
2017-08-17T07:11:25.416Z,1011.79
2017-08-17T07:13:19.889Z,1011.77
2017-08-17T07:14:19.933Z,1011.71
2017-08-17T07:16:13.384Z,1011.73
2017-08-17T07:17:13.417Z,1011.70
2017-08-17T07:19:07.867Z,1011.67
2017-08-17T07:20:07.914Z,1011.62
2017-08-17T07:22:02.409Z,1011.57
2017-08-17T07:23:02.441Z,1011.63
2017-08-17T07:24:56.896Z,1011.55
2017-08-17T07:25:56.913Z,1011.53
2017-08-17T07:27:50.402Z,1011.60
2017-08-17T07:28:50.465Z,1011.62
2017-08-17T07:30:44.945Z,1011.62
2017-08-17T07:31:44.921Z,1011.59
2017-08-17T07:33:39.369Z,1011.55
2017-08-17T07:34:39.409Z,1011.57
2017-08-17T07:36:33.924Z,1011.66
2017-08-17T07:37:34.009Z,1011.62
2017-08-17T07:39:28.394Z,1011.59
2017-08-17T07:40:28.650Z,1011.58
2017-08-17T07:42:22.980Z,1011.62
2017-08-17T07:43:22.962Z,1011.72
2017-08-17T07:45:17.394Z,1011.71
2017-08-17T07:46:17.426Z,1011.68
2017-08-17T07:48:10.915Z,1011.67
2017-08-17T07:49:10.946Z,1011.69
2017-08-17T07:51:05.442Z,1011.71
2017-08-17T07:52:05.546Z,1011.66
2017-08-17T07:53:59.890Z,1011.62
2017-08-17T07:54:59.946Z,1011.60
2017-08-17T07:56:54.426Z,1011.58
2017-08-17T07:57:54.467Z,1011.57
2017-08-17T07:59:48.986Z,1011.55
2017-08-17T08:00:48.931Z,1011.55
2017-08-17T08:02:43.411Z,1011.52
2017-08-17T08:03:43.437Z,1011.51
2017-08-17T08:05:36.899Z,1011.56
2017-08-17T08:06:36.923Z,1011.60
2017-08-17T08:08:31.419Z,1011.60
2017-08-17T08:09:31.467Z,1011.64
2017-08-17T08:11:25.900Z,1011.76
2017-08-17T08:12:25.931Z,1011.79
2017-08-17T08:14:20.468Z,1011.73
2017-08-17T08:15:20.419Z,1011.70
2017-08-17T08:17:14.892Z,1011.63
2017-08-17T08:18:14.947Z,1011.65
2017-08-17T08:20:09.419Z,1011.65
2017-08-17T08:21:09.476Z,1011.63
2017-08-17T08:23:04.388Z,1011.71
2017-08-17T08:24:03.948Z,1011.73
2017-08-17T08:25:58.404Z,1011.59
2017-08-17T08:26:58.455Z,1011.59
2017-08-17T08:28:52.916Z,1011.50
2017-08-17T08:29:52.940Z,1011.51
2017-08-17T08:31:46.436Z,1011.51
2017-08-17T08:32:46.468Z,1011.53
2017-08-17T08:34:40.893Z,1011.49
2017-08-17T08:35:40.932Z,1011.51
2017-08-17T08:37:35.460Z,1011.45
2017-08-17T08:38:35.461Z,1011.46
2017-08-17T08:40:29.892Z,1011.35
2017-08-17T08:41:29.956Z,1011.36
2017-08-17T08:43:24.420Z,1011.29
2017-08-17T08:44:24.437Z,1011.30
2017-08-17T08:46:18.893Z,1011.33
2017-08-17T08:47:18.933Z,1011.25
2017-08-17T08:49:13.468Z,1011.29
2017-08-17T08:50:13.461Z,1011.29
2017-08-17T08:52:07.892Z,1011.33
2017-08-17T08:53:07.949Z,1011.28
2017-08-17T08:55:02.541Z,1011.28
2017-08-17T08:56:02.446Z,1011.24
2017-08-17T08:57:56.933Z,1011.24
2017-08-17T08:58:56.973Z,1011.25
2017-08-17T09:00:51.477Z,1011.19
2017-08-17T09:01:51.469Z,1011.14
2017-08-17T09:03:45.909Z,1011.17
2017-08-17T09:04:45.973Z,1011.15
2017-08-17T09:06:40.421Z,1011.19
2017-08-17T09:07:40.461Z,1011.15
2017-08-17T09:09:34.965Z,1011.21
2017-08-17T09:10:34.965Z,1011.13
2017-08-17T09:12:29.469Z,1011.12
2017-08-17T09:13:29.509Z,1011.06
2017-08-17T09:15:23.965Z,1011.07
2017-08-17T09:16:23.990Z,1011.07
2017-08-17T09:18:18.431Z,1010.98
2017-08-17T09:19:18.478Z,1011.04
2017-08-17T09:21:12.985Z,1010.99
2017-08-17T09:22:12.982Z,1010.98
2017-08-17T09:24:07.518Z,1011.01
2017-08-17T09:25:07.494Z,1011.01
2017-08-17T09:27:01.998Z,1011.04
2017-08-17T09:28:02.047Z,1011.08
2017-08-17T09:29:56.495Z,1011.04
2017-08-17T09:30:56.503Z,1010.99
2017-08-17T09:32:50.991Z,1011.08
2017-08-17T09:33:50.999Z,1011.09
2017-08-17T09:35:46.319Z,1011.00
2017-08-17T09:36:46.367Z,1011.03
2017-08-17T09:38:40.847Z,1011.06
2017-08-17T09:39:40.911Z,1011.04
2017-08-17T09:41:35.352Z,1011.08
2017-08-17T09:42:35.368Z,1011.06
2017-08-17T09:44:29.872Z,1011.02
2017-08-17T09:45:29.895Z,1011.04
2017-08-17T09:47:24.359Z,1010.98
2017-08-17T09:48:24.383Z,1010.96
2017-08-17T09:50:17.864Z,1010.90
2017-08-17T09:51:17.887Z,1010.85
2017-08-17T09:53:12.379Z,1010.75
2017-08-17T09:54:12.400Z,1010.73
2017-08-17T09:56:06.968Z,1010.75
2017-08-17T09:57:06.912Z,1010.73
2017-08-17T09:59:00.368Z,1010.72
2017-08-17T10:00:00.448Z,1010.65
2017-08-17T10:01:54.944Z,1010.66
2017-08-17T10:02:54.897Z,1010.65
2017-08-17T10:04:49.384Z,1010.64
2017-08-17T10:05:49.421Z,1010.63
2017-08-17T10:07:42.904Z,1010.58
2017-08-17T10:08:42.958Z,1010.56
2017-08-17T10:10:37.381Z,1010.55
2017-08-17T10:11:37.433Z,1010.52
2017-08-17T10:13:31.924Z,1010.49
2017-08-17T10:14:31.921Z,1010.47
2017-08-17T10:16:35.216Z,1010.49
2017-08-17T10:17:26.448Z,1010.49
2017-08-17T10:19:22.433Z,1010.58
2017-08-17T10:20:22.513Z,1010.56
2017-08-17T10:22:16.929Z,1010.58
2017-08-17T10:23:16.977Z,1010.56
2017-08-17T10:25:13.177Z,1010.63
2017-08-17T10:26:12.953Z,1010.67
2017-08-17T10:28:07.665Z,1010.60
2017-08-17T10:29:07.490Z,1010.61
2017-08-17T10:31:02.058Z,1010.59
2017-08-17T10:32:02.378Z,1010.58
2017-08-17T10:33:56.465Z,1010.51
2017-08-17T10:34:56.633Z,1010.55
2017-08-17T10:36:50.977Z,1010.56
2017-08-17T10:37:51.002Z,1010.56
2017-08-17T10:39:45.514Z,1010.51
2017-08-17T10:40:45.538Z,1010.54
2017-08-17T10:42:40.142Z,1010.60
2017-08-17T10:43:40.066Z,1010.48
2017-08-17T10:45:34.808Z,1010.50
2017-08-17T10:46:34.600Z,1010.56
2017-08-17T10:48:29.024Z,1010.53
2017-08-17T10:49:29.073Z,1010.52
2017-08-17T10:51:25.520Z,1010.47
2017-08-17T10:52:25.097Z,1010.45
2017-08-17T10:54:20.024Z,1010.38
2017-08-17T10:55:19.664Z,1010.38
2017-08-17T10:57:14.229Z,1010.46
2017-08-17T10:58:14.129Z,1010.47
2017-08-17T11:00:10.049Z,1010.52
2017-08-17T11:01:08.713Z,1010.48
2017-08-17T11:03:03.089Z,1010.50
2017-08-17T11:04:03.129Z,1010.55
2017-08-17T11:05:57.585Z,1010.62
2017-08-17T11:06:57.625Z,1010.56
2017-08-17T11:08:52.233Z,1010.70
2017-08-17T11:09:52.145Z,1010.66
2017-08-17T11:11:45.601Z,1010.64
2017-08-17T11:12:45.681Z,1010.61
2017-08-17T11:14:40.258Z,1010.61
2017-08-17T11:15:40.194Z,1010.68
2017-08-17T11:17:34.674Z,1010.61
2017-08-17T11:18:34.698Z,1010.60
2017-08-17T11:20:28.241Z,1010.51
2017-08-17T11:21:28.261Z,1010.45
2017-08-17T11:23:22.690Z,1010.50
2017-08-17T11:24:22.690Z,1010.48
2017-08-17T11:26:17.218Z,1010.56
2017-08-17T11:27:17.226Z,1010.50
2017-08-17T11:29:11.706Z,1010.44
2017-08-17T11:30:11.825Z,1010.46
2017-08-17T11:32:06.301Z,1010.42
2017-08-17T11:33:06.434Z,1010.45
2017-08-17T11:35:00.714Z,1010.44
2017-08-17T11:36:01.027Z,1010.44
2017-08-17T11:37:56.874Z,1010.47
2017-08-17T11:38:56.754Z,1010.43
2017-08-17T11:40:51.290Z,1010.46
2017-08-17T11:41:51.658Z,1010.43
2017-08-17T11:43:45.754Z,1010.44
2017-08-17T11:44:45.803Z,1010.39
2017-08-17T11:46:40.361Z,1010.36
2017-08-17T11:47:41.818Z,1010.34
2017-08-17T11:49:33.155Z,1010.32
2017-08-17T11:50:34.083Z,1010.27
2017-08-17T11:52:27.347Z,1010.24
2017-08-17T11:53:27.395Z,1010.18
2017-08-17T11:55:22.347Z,1010.22
2017-08-17T11:56:22.315Z,1010.21
2017-08-17T11:58:16.779Z,1010.16
2017-08-17T11:59:16.018Z,1010.18
2017-08-17T12:01:10.245Z,1010.09
2017-08-17T12:02:10.160Z,1010.11
2017-08-17T12:04:16.179Z,1010.04
2017-08-17T12:05:25.108Z,1010.03
2017-08-17T12:07:12.595Z,1010.06
2017-08-17T12:08:12.651Z,1010.04
2017-08-17T12:10:06.891Z,1010.10
2017-08-17T12:11:06.867Z,1010.09
2017-08-17T12:13:03.398Z,1010.03
2017-08-17T12:14:11.500Z,1010.06
2017-08-17T12:16:11.724Z,1010.05
2017-08-17T12:17:11.716Z,1010.02
2017-08-17T12:19:06.268Z,1009.99
2017-08-17T12:20:06.372Z,1010.02
2017-08-17T12:22:12.557Z,1009.98
2017-08-17T12:24:52.972Z,1010.00
2017-08-17T12:26:01.860Z,1010.11
2017-08-17T12:27:48.028Z,1010.12
2017-08-17T12:28:47.813Z,1010.19
2017-08-17T12:30:53.877Z,1010.20
2017-08-17T12:31:43.789Z,1010.16
2017-08-17T12:33:38.404Z,1010.17
2017-08-17T12:34:38.349Z,1010.20
2017-08-17T12:36:34.460Z,1010.23
2017-08-17T12:37:34.415Z,1010.21
2017-08-17T12:39:29.877Z,1010.37
2017-08-17T12:40:29.838Z,1010.29
2017-08-17T12:42:25.141Z,1010.38
2017-08-17T12:43:24.373Z,1010.38
2017-08-17T12:45:20.293Z,1010.42
2017-08-17T12:46:20.310Z,1010.38
2017-08-17T12:48:16.389Z,1010.42
2017-08-17T12:49:16.325Z,1010.40
2017-08-17T12:51:10.989Z,1010.36
2017-08-17T12:52:10.886Z,1010.40
2017-08-17T12:54:07.133Z,1010.42
2017-08-17T12:55:07.294Z,1010.36
2017-08-17T12:57:02.790Z,1010.41
2017-08-17T12:58:02.831Z,1010.44
2017-08-17T12:59:57.478Z,1010.43
2017-08-17T13:00:57.483Z,1010.38
2017-08-17T13:02:50.854Z,1010.36
2017-08-17T13:03:50.991Z,1010.30
2017-08-17T13:05:45.478Z,1010.27
2017-08-17T13:06:45.374Z,1010.22
2017-08-17T13:08:39.934Z,1010.27
2017-08-17T13:09:39.872Z,1010.32
2017-08-17T13:11:34.190Z,1010.33
2017-08-17T13:12:34.895Z,1010.39
2017-08-17T13:14:27.687Z,1010.46
2017-08-17T13:15:27.759Z,1010.45
2017-08-17T13:17:30.951Z,1010.40
2017-08-17T13:18:22.311Z,1010.38
2017-08-17T13:20:16.719Z,1010.41
2017-08-17T13:21:16.751Z,1010.39
2017-08-17T13:23:22.711Z,1010.36
2017-08-17T13:24:22.927Z,1010.40
2017-08-17T13:26:17.232Z,1010.39
2017-08-17T13:27:17.271Z,1010.37
2017-08-17T13:29:11.799Z,1010.39
2017-08-17T13:30:11.799Z,1010.42
2017-08-17T13:32:06.248Z,1010.42
2017-08-17T13:33:06.231Z,1010.45
2017-08-17T13:35:01.479Z,1010.45
2017-08-17T13:36:01.231Z,1010.44
2017-08-17T13:37:55.455Z,1010.40
2017-08-17T13:38:55.664Z,1010.47
2017-08-17T13:40:49.903Z,1010.55
2017-08-17T13:41:49.992Z,1010.54
2017-08-17T13:43:44.447Z,1010.57
2017-08-17T13:44:44.471Z,1010.58
2017-08-17T13:46:39.071Z,1010.59
2017-08-17T13:47:38.969Z,1010.63
2017-08-17T13:49:33.440Z,1010.58
2017-08-17T13:50:33.624Z,1010.64
2017-08-17T13:52:27.912Z,1010.63
2017-08-17T13:53:28.048Z,1010.65
2017-08-17T13:55:22.576Z,1010.63
2017-08-17T13:56:22.505Z,1010.59
2017-08-17T13:58:16.904Z,1010.64
2017-08-17T13:59:16.968Z,1010.64
2017-08-17T14:01:10.506Z,1010.67
2017-08-17T14:02:10.449Z,1010.66
2017-08-17T14:04:04.928Z,1010.59
2017-08-17T14:05:04.969Z,1010.58
2017-08-17T14:06:59.472Z,1010.58
2017-08-17T14:07:59.481Z,1010.58
2017-08-17T14:09:52.937Z,1010.56
2017-08-17T14:10:52.969Z,1010.50
2017-08-17T14:12:47.489Z,1010.49
2017-08-17T14:13:47.481Z,1010.52
2017-08-17T14:15:41.957Z,1010.54
2017-08-17T14:16:41.969Z,1010.50
2017-08-17T14:18:36.434Z,1010.51
2017-08-17T14:19:36.481Z,1010.53
2017-08-17T14:21:30.970Z,1010.51
2017-08-17T14:22:30.978Z,1010.52
2017-08-17T14:24:25.452Z,1010.49
2017-08-17T14:25:25.553Z,1010.44
2017-08-17T14:27:20.010Z,1010.32
2017-08-17T14:28:20.033Z,1010.36
2017-08-17T14:30:14.466Z,1010.31
2017-08-17T14:31:14.514Z,1010.31
2017-08-17T14:33:10.514Z,1010.29
2017-08-17T14:34:10.532Z,1010.38
2017-08-17T14:36:05.042Z,1010.46
2017-08-17T14:37:05.042Z,1010.41
2017-08-17T14:38:59.506Z,1010.58
2017-08-17T14:39:59.666Z,1010.58
2017-08-17T14:41:53.978Z,1010.60
2017-08-17T14:42:54.050Z,1010.54
2017-08-17T14:44:48.586Z,1010.56
2017-08-17T14:45:48.567Z,1010.63
2017-08-17T14:47:43.914Z,1010.67
2017-08-17T14:48:53.666Z,1010.60
2017-08-17T14:50:40.203Z,1010.56
2017-08-17T14:51:37.602Z,1010.55
2017-08-17T14:53:32.067Z,1010.57
2017-08-17T14:54:32.061Z,1010.57
2017-08-17T14:56:26.524Z,1010.47
2017-08-17T14:57:26.578Z,1010.49
2017-08-17T14:59:21.075Z,1010.50
2017-08-17T15:00:21.090Z,1010.57
2017-08-17T15:02:15.539Z,1010.64
2017-08-17T15:03:15.571Z,1010.70
2017-08-17T15:05:10.059Z,1010.65
2017-08-17T15:06:10.092Z,1010.71
2017-08-17T15:08:04.587Z,1010.62
2017-08-17T15:09:04.603Z,1010.56
2017-08-17T15:10:59.140Z,1010.66
2017-08-17T15:11:59.091Z,1010.65
2017-08-17T15:13:53.595Z,1010.50
2017-08-17T15:14:53.605Z,1010.44
2017-08-17T15:16:48.099Z,1010.41
2017-08-17T15:17:48.108Z,1010.49
2017-08-17T15:19:42.588Z,1010.57
2017-08-17T15:20:42.628Z,1010.41
2017-08-17T15:22:37.141Z,1010.28
2017-08-17T15:23:37.148Z,1010.22
2017-08-17T15:25:31.628Z,1010.32
2017-08-17T15:26:31.628Z,1010.36
2017-08-17T15:28:26.113Z,1010.34
2017-08-17T15:29:26.132Z,1010.28
2017-08-17T15:31:20.604Z,1010.23
2017-08-17T15:32:20.620Z,1010.20
2017-08-17T15:34:14.108Z,1010.32
2017-08-17T15:35:14.133Z,1010.39
2017-08-17T15:37:08.581Z,1010.51
2017-08-17T15:38:08.629Z,1010.53
2017-08-17T15:40:02.101Z,1010.54
2017-08-17T15:41:02.125Z,1010.58
2017-08-17T15:42:56.589Z,1010.65
2017-08-17T15:43:56.687Z,1010.68
2017-08-17T15:45:50.109Z,1010.76
2017-08-17T15:46:50.125Z,1010.69
2017-08-17T15:48:44.589Z,1010.43
2017-08-17T15:49:44.638Z,1010.20
2017-08-17T15:51:39.133Z,1010.10
2017-08-17T15:52:39.125Z,1010.16
2017-08-17T15:54:33.645Z,1010.24
2017-08-17T15:55:33.637Z,1010.34
2017-08-17T15:57:28.125Z,1010.57
2017-08-17T15:58:28.189Z,1010.63
2017-08-17T16:00:22.686Z,1010.64
2017-08-17T16:01:22.670Z,1010.56
2017-08-17T16:03:16.190Z,1010.56
2017-08-17T16:04:16.182Z,1010.62
2017-08-17T16:06:10.646Z,1010.60
2017-08-17T16:07:10.670Z,1010.64
2017-08-17T16:09:04.150Z,1010.57
2017-08-17T16:10:04.166Z,1010.60
2017-08-17T16:11:57.622Z,1010.62
2017-08-17T16:12:57.670Z,1010.64
2017-08-17T16:14:52.216Z,1010.68
2017-08-17T16:15:52.182Z,1010.59
2017-08-17T16:17:46.718Z,1010.57
2017-08-17T16:18:46.662Z,1010.52
2017-08-17T16:20:40.151Z,1010.59
2017-08-17T16:21:40.167Z,1010.56
2017-08-17T16:23:34.675Z,1010.59
2017-08-17T16:24:34.702Z,1010.55
2017-08-17T16:26:30.175Z,1010.56
2017-08-17T16:27:30.191Z,1010.54
2017-08-17T16:29:24.663Z,1010.52
2017-08-17T16:30:24.727Z,1010.53
2017-08-17T16:32:18.191Z,1010.49
2017-08-17T16:33:18.895Z,1010.45
2017-08-17T16:35:11.984Z,1010.41
2017-08-17T16:36:12.119Z,1010.44
2017-08-17T16:38:06.151Z,1010.38
2017-08-17T16:39:06.199Z,1010.38
2017-08-17T16:41:02.288Z,1010.35
2017-08-17T16:42:02.296Z,1010.29
2017-08-17T16:43:56.672Z,1010.20
2017-08-17T16:44:56.911Z,1010.18
2017-08-17T16:46:50.199Z,1010.21
2017-08-17T16:47:50.192Z,1010.18
2017-08-17T16:49:43.696Z,1010.15
2017-08-17T16:50:43.688Z,1010.13
2017-08-17T16:52:38.256Z,1010.12
2017-08-17T16:53:38.272Z,1010.13
2017-08-17T16:55:32.816Z,1010.14
2017-08-17T16:56:32.784Z,1010.11
2017-08-17T16:58:27.672Z,1010.11
2017-08-17T16:59:27.264Z,1010.10
2017-08-17T17:01:20.784Z,1010.25
2017-08-17T17:02:20.825Z,1010.26
2017-08-17T17:04:15.313Z,1010.29
2017-08-17T17:05:15.328Z,1010.26
2017-08-17T17:07:08.873Z,1010.16
2017-08-17T17:08:08.849Z,1010.14
2017-08-17T17:10:03.329Z,1010.13
2017-08-17T17:11:03.369Z,1010.18
2017-08-17T17:12:57.849Z,1010.22
2017-08-17T17:13:57.889Z,1010.23
2017-08-17T17:15:52.313Z,1010.18
2017-08-17T17:16:52.368Z,1010.18
2017-08-17T17:18:46.849Z,1010.13
2017-08-17T17:19:46.873Z,1010.16
2017-08-17T17:21:41.345Z,1010.13
2017-08-17T17:22:41.385Z,1010.14
2017-08-17T17:24:34.825Z,1010.07
2017-08-17T17:25:34.857Z,1010.04
2017-08-17T17:27:30.874Z,1010.09
2017-08-17T17:28:30.966Z,1010.09
2017-08-17T17:30:25.360Z,1010.08
2017-08-17T17:31:25.385Z,1010.12
2017-08-17T17:33:23.033Z,1010.12
2017-08-17T17:34:22.321Z,1010.13
2017-08-17T17:36:15.404Z,1010.18